Time;durP1;ratioP1;P1;durP2;ratioP2;P2;SDS_P1;SDS_P2;PMS_P1;PMS_P2;Temp;Humidity;BMP_temperature;BMP_pressure;BME280_temperature;BME280_humidity;BME280_pressure;Samples;Min_cycle;Max_cycle;Signal;HPM_P1;HPM_P2
2022/08/17 00:01:14;;;;;;;5.50;3.70;;;;;;;17.02;81.11;95126.60;1832085;78;21013;-69
2022/08/17 00:03:44;;;;;;;4.53;4.10;;;;;;;16.94;81.40;95129.66;1831935;78;21013;-70
2022/08/17 00:06:19;;;;;;;5.85;4.17;;;;;;;16.99;81.58;95134.77;1831908;78;20989;-70
2022/08/17 00:08:53;;;;;;;7.17;3.92;;;;;;;17.00;81.23;95117.34;1831477;78;21101;-70
2022/08/17 00:11:28;;;;;;;7.75;4.10;;;;;;;17.06;81.38;95121.04;1832010;78;20970;-70
2022/08/17 00:14:03;;;;;;;4.30;3.90;;;;;;;17.01;81.81;95120.41;1832044;78;21065;-70
2022/08/17 00:16:38;;;;;;;5.47;3.98;;;;;;;16.99;82.64;95125.44;1830729;78;21014;-69
2022/08/17 00:19:09;;;;;;;4.90;3.98;;;;;;;16.96;81.81;95124.23;1830633;78;21021;-70
2022/08/17 00:21:40;;;;;;;4.28;3.87;;;;;;;16.84;81.42;95126.59;1831956;78;21468;-70
2022/08/17 00:24:07;;;;;;;7.45;4.30;;;;;;;16.84;81.90;95113.27;1831931;78;21069;-70
2022/08/17 00:26:34;;;;;;;7.85;3.92;;;;;;;16.84;81.90;95113.27;1831966;78;20942;-70
2022/08/17 00:29:01;;;;;;;5.72;3.40;;;;;;;16.79;81.69;95110.45;1831995;78;20998;-70
2022/08/17 00:31:28;;;;;;;5.58;3.50;;;;;;;16.79;81.69;95110.45;1832003;78;21448;-70
2022/08/17 00:33:55;;;;;;;4.05;3.50;;;;;;;16.78;81.46;95108.27;1831802;78;21500;-70
2022/08/17 00:36:22;;;;;;;4.40;4.00;;;;;;;16.62;81.24;95104.12;1829419;78;21018;-70
2022/08/17 00:38:50;;;;;;;8.58;4.10;;;;;;;16.62;81.24;95104.12;1826204;78;21025;-70
2022/08/17 00:41:22;;;;;;;9.00;3.92;;;;;;;16.57;82.91;95100.83;1826027;78;21050;-70
2022/08/17 00:43:54;;;;;;;4.85;3.27;;;;;;;16.54;82.52;95101.00;1826203;78;21010;-70
2022/08/17 00:46:28;;;;;;;7.85;4.00;;;;;;;16.58;82.72;95104.35;1826220;78;20993;-70
2022/08/17 00:48:57;;;;;;;7.45;4.15;;;;;;;16.59;82.49;95107.43;1826223;78;21049;-70
2022/08/17 00:51:53;;;;;;;6.17;3.92;;;;;;;16.63;82.37;95106.31;1825988;78;21566;-70
2022/08/17 00:54:25;;;;;;;5.72;3.75;;;;;;;16.62;83.09;95112.59;1826121;78;21014;-70
2022/08/17 00:56:59;;;;;;;6.33;3.92;;;;;;;16.54;82.24;95114.31;1825225;78;21054;-70
2022/08/17 00:59:31;;;;;;;7.55;3.95;;;;;;;16.46;82.95;95121.83;1826232;78;21061;-70
2022/08/17 01:01:59;;;;;;;5.28;3.85;;;;;;;16.42;82.78;95124.23;1826155;78;20978;-70
2022/08/17 01:04:29;;;;;;;5.42;3.58;;;;;;;16.36;82.17;95123.22;1826181;78;21010;-70
2022/08/17 01:06:57;;;;;;;3.90;3.47;;;;;;;16.27;81.90;95125.84;1825951;78;21010;-70
2022/08/17 01:09:24;;;;;;;4.60;3.62;;;;;;;16.25;81.89;95125.04;1825990;78;21046;-70
2022/08/17 01:11:51;;;;;;;4.70;4.05;;;;;;;16.17;82.02;95122.75;1826048;78;21010;-70
2022/08/17 01:14:23;;;;;;;4.12;3.58;;;;;;;16.15;83.14;95115.33;1826043;78;21077;-70
2022/08/17 01:16:53;;;;;;;8.10;3.95;;;;;;;16.20;83.66;95119.08;1826042;78;20963;-70
2022/08/17 01:19:25;;;;;;;7.85;3.95;;;;;;;16.19;83.38;95121.36;1826102;78;21002;-70
2022/08/17 01:22:15;;;;;;;8.20;3.50;;;;;;;16.17;82.69;95121.42;1825005;78;21018;-70
2022/08/17 01:24:58;;;;;;;9.35;3.92;;;;;;;16.17;82.69;95121.42;1826306;78;20962;-70
2022/08/17 01:27:26;;;;;;;6.20;3.65;;;;;;;16.15;83.12;95115.77;1826053;78;21449;-70
2022/08/17 01:29:58;;;;;;;6.30;3.80;;;;;;;16.05;82.39;95118.04;1826164;78;21050;-70
2022/08/17 01:32:27;;;;;;;5.87;3.65;;;;;;;16.05;82.39;95118.04;1826216;78;21460;-70
2022/08/17 01:34:54;;;;;;;4.97;3.60;;;;;;;15.93;82.42;95126.60;1826176;78;20971;-70
2022/08/17 01:37:29;;;;;;;8.33;3.85;;;;;;;15.86;82.70;95117.17;1822485;78;21053;-70
2022/08/17 01:40:01;;;;;;;7.83;3.67;;;;;;;15.86;82.70;95117.17;1820138;79;21484;-70
2022/08/17 01:42:39;;;;;;;4.87;3.47;;;;;;;15.91;82.91;95122.67;1820817;79;21516;-70
2022/08/17 01:45:12;;;;;;;5.62;3.52;;;;;;;15.91;82.96;95130.66;1821259;79;21511;-70
2022/08/17 01:47:40;;;;;;;17.87;3.85;;;;;;;15.90;82.97;95120.95;1820599;79;21058;-70
2022/08/17 01:50:15;;;;;;;7.60;4.20;;;;;;;15.89;82.84;95119.21;1821161;79;21002;-70
2022/08/17 01:52:45;;;;;;;6.58;4.20;;;;;;;15.93;83.28;95114.16;1821132;79;21058;-70
2022/08/17 01:55:15;;;;;;;8.28;3.90;;;;;;;15.99;82.79;95107.67;1821259;79;21405;-70
2022/08/17 01:57:44;;;;;;;8.45;4.15;;;;;;;16.00;82.65;95108.94;1821149;79;20995;-70
2022/08/17 02:00:12;;;;;;;11.10;4.15;;;;;;;15.86;82.70;95102.55;1821471;79;21021;-70
2022/08/17 02:02:41;;;;;;;5.35;4.00;;;;;;;15.86;82.70;95102.55;1821190;79;20998;-70
2022/08/17 02:05:08;;;;;;;4.80;3.20;;;;;;;15.82;82.75;95100.48;1820799;79;21069;-70
2022/08/17 02:07:36;;;;;;;7.28;4.03;;;;;;;15.87;83.80;95105.11;1820874;79;21063;-70
2022/08/17 02:10:07;;;;;;;4.25;3.87;;;;;;;15.91;83.73;95104.05;1821256;79;21034;-70
2022/08/17 02:12:36;;;;;;;9.93;4.60;;;;;;;15.80;83.63;95099.71;1821141;79;21014;-70
2022/08/17 02:15:06;;;;;;;6.42;4.78;;;;;;;15.80;83.63;95099.71;1794425;79;20983;-70
2022/08/17 02:17:33;;;;;;;7.40;5.05;;;;;;;15.72;84.73;95093.86;1821155;79;21014;-70
2022/08/17 02:20:01;;;;;;;7.85;3.95;;;;;;;15.77;84.75;95102.49;1821028;79;21043;-70
2022/08/17 02:22:28;;;;;;;5.25;3.92;;;;;;;15.82;84.25;95107.13;1821119;79;21029;-70
2022/08/17 02:24:56;;;;;;;6.10;4.45;;;;;;;15.78;83.64;95114.41;1793854;79;21057;-70
2022/08/17 02:27:22;;;;;;;4.97;3.87;;;;;;;15.73;83.53;95115.09;1821413;79;21511;-70
2022/08/17 02:29:49;;;;;;;7.30;4.30;;;;;;;15.77;83.57;95119.78;1821280;79;21022;-70
2022/08/17 02:32:19;;;;;;;6.08;4.05;;;;;;;15.70;83.66;95116.56;1821104;79;21019;-70
2022/08/17 02:34:46;;;;;;;4.58;3.52;;;;;;;15.70;83.66;95116.56;1821474;79;21040;-70
2022/08/17 02:37:16;;;;;;;10.28;4.00;;;;;;;15.74;83.23;95126.11;1823762;78;21053;-70
2022/08/17 02:39:42;;;;;;;6.10;3.90;;;;;;;15.66;82.65;95126.05;1825804;78;21087;-70
2022/08/17 02:42:09;;;;;;;5.22;3.45;;;;;;;15.64;82.77;95114.61;1826254;78;20975;-70
2022/08/17 02:44:37;;;;;;;9.08;3.80;;;;;;;15.64;82.77;95114.61;1826256;78;20970;-70
2022/08/17 02:47:04;;;;;;;6.15;4.28;;;;;;;15.68;83.52;95126.38;1825770;78;21548;-70
2022/08/17 02:49:31;;;;;;;7.85;4.60;;;;;;;15.68;83.52;95126.38;1826158;78;21025;-70
2022/08/17 02:51:58;;;;;;;6.92;4.42;;;;;;;15.73;83.66;95124.87;1825764;78;21026;-70
2022/08/17 02:54:25;;;;;;;10.45;4.30;;;;;;;15.69;82.99;95125.45;1825991;78;21043;-70
2022/08/17 02:56:51;;;;;;;5.97;4.33;;;;;;;15.66;83.05;95129.56;1826482;78;20954;-70
2022/08/17 02:59:18;;;;;;;8.55;4.20;;;;;;;15.66;83.05;95129.56;1826280;78;20996;-70
2022/08/17 03:01:45;;;;;;;8.83;3.85;;;;;;;15.57;83.06;95129.97;1825980;78;21038;-70
2022/08/17 03:04:12;;;;;;;7.42;4.20;;;;;;;15.57;83.06;95129.97;1826498;78;21030;-70
2022/08/17 03:06:38;;;;;;;5.62;4.62;;;;;;;15.51;83.40;95126.27;1826302;78;20982;-70
2022/08/17 03:09:05;;;;;;;5.17;4.40;;;;;;;15.49;83.18;95138.30;1826136;78;21472;-70
2022/08/17 03:11:32;;;;;;;7.90;3.60;;;;;;;15.54;83.62;95139.42;1826288;78;21547;-70
2022/08/17 03:13:59;;;;;;;8.50;4.10;;;;;;;15.47;83.03;95135.31;1826092;78;21543;-70
2022/08/17 03:16:25;;;;;;;11.63;3.95;;;;;;;15.43;83.08;95131.08;1826304;78;20990;-70
2022/08/17 03:18:53;;;;;;;4.90;3.90;;;;;;;15.39;83.61;95130.81;1826273;78;21006;-70
2022/08/17 03:21:20;;;;;;;5.05;4.15;;;;;;;15.39;83.61;95130.81;1826234;78;20994;-70
2022/08/17 03:23:47;;;;;;;6.55;3.60;;;;;;;15.39;84.47;95135.66;1826040;78;21018;-70
2022/08/17 03:26:14;;;;;;;8.38;3.85;;;;;;;15.35;83.83;95141.59;1826304;78;20990;-70
2022/08/17 03:28:41;;;;;;;7.00;4.15;;;;;;;15.28;83.46;95138.80;1826177;78;21484;-70
2022/08/17 03:31:08;;;;;;;4.22;3.77;;;;;;;15.28;83.46;95138.80;1826290;78;20986;-70
2022/08/17 03:33:34;;;;;;;6.35;4.50;;;;;;;15.40;83.92;95144.52;1826136;78;20998;-70
2022/08/17 03:36:01;;;;;;;4.85;4.05;;;;;;;15.39;83.49;95142.77;1826348;78;21448;-70
2022/08/17 03:38:28;;;;;;;6.15;4.45;;;;;;;15.43;83.49;95141.72;1831410;78;21021;-70
2022/08/17 03:40:55;;;;;;;5.95;4.17;;;;;;;15.41;83.93;95138.26;1832074;78;21437;-70
2022/08/17 03:43:22;;;;;;;7.28;4.58;;;;;;;15.40;83.79;95148.51;1831986;78;21034;-70
2022/08/17 03:57:08;;;;;;;8.58;6.00;;;;;;;15.51;84.04;95150.20;1832075;78;20943;-70
2022/08/17 03:59:36;;;;;;;7.65;5.22;;;;;;;15.52;83.76;95154.58;1831986;78;21029;-70
2022/08/17 04:02:08;;;;;;;8.40;5.30;;;;;;;15.49;84.70;95154.72;1832107;78;21448;-70
2022/08/17 04:04:38;;;;;;;6.83;5.05;;;;;;;15.54;84.46;95156.23;1831907;78;21040;-70
2022/08/17 04:07:06;;;;;;;6.20;4.50;;;;;;;15.54;83.99;95154.91;1832064;78;20993;-70
2022/08/17 04:09:33;;;;;;;8.10;4.80;;;;;;;15.56;83.47;95155.70;1831802;78;21013;-70
2022/08/17 04:12:00;;;;;;;10.03;4.90;;;;;;;15.58;84.09;95167.14;1831930;78;21010;-70
2022/08/17 04:14:29;;;;;;;9.63;4.78;;;;;;;15.61;84.13;95166.61;1831943;78;21017;-70
2022/08/17 04:16:55;;;;;;;8.73;3.87;;;;;;;15.56;84.00;95161.02;1831923;78;21014;-70
2022/08/17 04:19:22;;;;;;;6.65;4.53;;;;;;;15.52;83.99;95163.44;1832048;78;21495;-70
2022/08/17 04:21:49;;;;;;;6.70;4.72;;;;;;;15.50;84.70;95159.13;1831918;78;20978;-70
2022/08/17 04:24:15;;;;;;;6.80;4.67;;;;;;;15.55;85.12;95163.30;1831870;78;20994;-70
2022/08/17 04:26:42;;;;;;;5.20;4.67;;;;;;;15.70;85.39;95163.55;1832034;78;21006;-70
2022/08/17 04:29:09;;;;;;;7.28;4.75;;;;;;;15.76;84.82;95166.80;1832054;78;20958;-70
2022/08/17 04:31:35;;;;;;;7.20;5.30;;;;;;;15.79;85.06;95174.64;1831817;78;21516;-70
2022/08/17 04:34:02;;;;;;;6.90;4.92;;;;;;;15.88;85.22;95168.05;1831851;78;21002;-70
2022/08/17 04:36:29;;;;;;;7.08;5.60;;;;;;;15.95;84.47;95171.27;1832041;78;21069;-70
2022/08/17 04:38:56;;;;;;;8.95;5.25;;;;;;;15.94;83.58;95166.42;1825627;78;21010;-70
2022/08/17 04:44:07;;;;;;;10.65;5.42;;;;;;;15.97;83.61;95176.91;1826267;78;21476;-70
2022/08/17 04:46:35;;;;;;;7.50;5.17;;;;;;;15.99;83.70;95176.37;1826197;78;20974;-70
2022/08/17 04:49:06;;;;;;;12.88;6.00;;;;;;;16.04;83.88;95176.64;1826066;78;21018;-70
2022/08/17 04:51:43;;;;;;;8.93;5.75;;;;;;;16.05;83.99;95171.70;1826163;78;21499;-70
2022/08/17 04:54:14;;;;;;;14.55;5.58;;;;;;;16.11;84.22;95176.28;1826041;78;21001;-70
2022/08/17 04:56:41;;;;;;;10.93;5.30;;;;;;;16.22;84.23;95181.09;1826112;78;21496;-71
2022/08/17 04:59:14;;;;;;;8.90;5.78;;;;;;;16.30;84.14;95184.73;1826137;78;20986;-69
2022/08/17 05:01:44;;;;;;;15.15;5.60;;;;;;;16.42;84.15;95182.81;1826394;78;21483;-70
2022/08/17 05:04:16;;;;;;;13.62;5.67;;;;;;;16.49;84.02;95192.71;1826078;78;21037;-70
2022/08/17 05:06:44;;;;;;;14.25;6.30;;;;;;;16.54;83.68;95198.20;1826036;78;21002;-70
2022/08/17 05:09:10;;;;;;;15.78;5.83;;;;;;;16.54;83.65;95196.02;1826016;78;21508;-70
2022/08/17 05:11:38;;;;;;;16.35;5.55;;;;;;;16.57;83.71;95202.52;1825946;78;20998;-70
2022/08/17 05:14:05;;;;;;;16.37;6.42;;;;;;;16.57;83.02;95202.52;1826036;78;21069;-70
2022/08/17 05:16:31;;;;;;;11.28;5.42;;;;;;;16.50;82.96;95207.73;1826153;78;21006;-70
2022/08/17 05:18:58;;;;;;;12.80;8.30;;;;;;;16.48;83.39;95203.84;1826198;78;21033;-70
2022/08/17 05:21:26;;;;;;;14.87;7.50;;;;;;;16.45;83.51;95206.63;1826100;78;20970;-70
2022/08/17 05:23:53;;;;;;;11.60;7.35;;;;;;;16.46;83.81;95203.05;1826179;78;20986;-70
2022/08/17 05:26:21;;;;;;;15.55;6.62;;;;;;;16.47;84.10;95202.09;1826064;78;21033;-70
2022/08/17 05:28:48;;;;;;;9.38;5.90;;;;;;;16.55;84.39;95212.38;1826026;78;21045;-70
2022/08/17 05:31:15;;;;;;;13.20;6.70;;;;;;;16.62;84.53;95205.34;1826194;78;21510;-70
2022/08/17 05:33:42;;;;;;;14.30;5.90;;;;;;;16.64;83.95;95199.95;1826083;78;20975;-70
2022/08/17 05:36:13;;;;;;;31.23;13.30;;;;;;;16.69;83.79;95209.92;1826138;78;21535;-70
2022/08/17 05:38:41;;;;;;;13.20;8.43;;;;;;;16.78;83.94;95204.19;1821949;78;21564;-70
2022/08/17 05:41:08;;;;;;;21.40;12.03;;;;;;;16.83;83.57;95205.27;1821251;79;21021;-70
2022/08/17 05:43:39;;;;;;;12.03;6.83;;;;;;;16.95;84.37;95207.33;1821249;79;21452;-70
2022/08/17 05:46:23;;;;;;;8.85;6.87;;;;;;;17.06;84.30;95202.34;1821164;79;21010;-70
2022/08/17 05:49:03;;;;;;;10.95;7.42;;;;;;;17.20;84.17;95199.44;1821236;79;20994;-70
2022/08/17 05:51:47;;;;;;;8.93;6.12;;;;;;;17.33;84.21;95202.34;1821279;79;21492;-70
2022/08/17 05:54:38;;;;;;;7.40;6.53;;;;;;;17.37;83.43;95205.25;1821259;79;21018;-70
2022/08/17 05:57:16;;;;;;;7.37;5.78;;;;;;;17.41;83.66;95202.35;1790384;79;21057;-70
2022/08/17 06:00:21;;;;;;;11.10;6.37;;;;;;;17.48;83.47;95202.88;1820037;79;20970;-70
2022/08/17 06:03:24;;;;;;;13.22;6.25;;;;;;;17.45;83.23;95207.89;1820771;79;21078;-69
2022/08/17 06:06:08;;;;;;;15.25;7.25;;;;;;;17.51;83.58;95201.38;1821966;79;21378;-70
2022/08/17 06:08:49;;;;;;;21.35;9.73;;;;;;;17.58;83.69;95193.92;1820967;79;21049;-70
2022/08/17 06:11:51;;;;;;;21.70;8.55;;;;;;;17.62;83.43;95195.50;1821397;79;21072;-70
2022/08/17 06:14:32;;;;;;;16.82;6.67;;;;;;;17.67;83.11;95197.45;1821441;79;21022;-70
2022/08/17 06:17:07;;;;;;;18.73;8.30;;;;;;;17.66;82.64;95195.23;1819472;79;21030;-70
2022/08/17 06:19:57;;;;;;;21.30;8.90;;;;;;;17.69;82.49;95197.77;1821406;79;21461;-70
2022/08/17 06:22:29;;;;;;;25.97;10.13;;;;;;;17.70;82.72;95197.28;1821347;79;21046;-70
2022/08/17 06:25:04;;;;;;;21.35;10.40;;;;;;;17.76;82.53;95193.42;1820249;79;21073;-70
2022/08/17 06:27:47;;;;;;;24.72;8.95;;;;;;;17.77;82.60;95192.02;1821160;79;21002;-70
2022/08/17 06:30:28;;;;;;;28.00;12.13;;;;;;;17.86;83.03;95194.20;1821474;79;21102;-70
2022/08/17 06:33:01;;;;;;;21.82;9.03;;;;;;;17.99;83.37;95189.06;1800404;79;21493;-70
2022/08/17 06:35:42;;;;;;;21.85;8.80;;;;;;;18.05;82.32;95191.42;1821443;79;21044;-70
2022/08/17 06:38:32;;;;;;;22.07;8.28;;;;;;;18.17;82.71;95191.23;1823372;78;21014;-70
2022/08/17 06:41:14;;;;;;;13.15;7.10;;;;;;;18.31;82.76;95193.13;1824522;78;21050;-70
2022/08/17 06:44:08;;;;;;;29.92;7.25;;;;;;;18.42;82.25;95193.41;1825935;78;21018;-70
2022/08/17 06:46:47;;;;;;;18.32;6.60;;;;;;;18.40;82.10;95195.78;1826207;78;21476;-70
2022/08/17 06:49:32;;;;;;;13.95;7.08;;;;;;;18.44;82.52;95194.16;1826194;78;21010;-70
2022/08/17 06:52:28;;;;;;;17.80;7.70;;;;;;;18.52;82.66;95195.07;1825902;78;21007;-70
2022/08/17 06:55:15;;;;;;;15.65;7.33;;;;;;;18.65;82.73;95193.45;1825294;78;21480;-70
2022/08/17 06:57:49;;;;;;;16.07;6.87;;;;;;;18.86;83.20;95196.73;1826408;78;21484;-70
2022/08/17 07:00:21;;;;;;;14.05;6.37;;;;;;;19.04;83.32;95204.16;1826186;78;20990;-70
2022/08/17 07:03:04;;;;;;;17.12;8.35;;;;;;;19.19;82.83;95199.25;1826458;78;21530;-70
2022/08/17 07:05:42;;;;;;;25.43;8.03;;;;;;;19.33;82.74;95201.61;1826371;78;20978;-70
2022/08/17 07:08:36;;;;;;;10.68;5.42;;;;;;;19.57;82.80;95203.28;1766162;78;21464;-70
2022/08/17 07:11:08;;;;;;;7.80;5.87;;;;;;;19.75;82.37;95205.34;1826199;78;20955;-70
2022/08/17 07:13:58;;;;;;;13.68;5.28;;;;;;;20.00;82.91;95198.01;1825510;78;21021;-70
2022/08/17 07:16:35;;;;;;;9.90;5.87;;;;;;;20.28;82.34;95199.33;1826250;78;20998;-70
2022/08/17 07:19:03;;;;;;;12.05;8.13;;;;;;;20.59;80.11;95200.11;1826041;78;21527;-70
2022/08/17 07:21:56;;;;;;;7.58;5.03;;;;;;;20.77;79.60;95202.57;1794955;78;21033;-70
2022/08/17 07:24:58;;;;;;;5.00;4.12;;;;;;;20.91;74.07;95199.34;1826135;78;21520;-70
2022/08/17 07:27:44;;;;;;;8.35;5.10;;;;;;;21.06;72.90;95204.66;1820162;78;21057;-70
2022/08/17 07:30:27;;;;;;;7.37;4.55;;;;;;;21.23;73.06;95204.89;1826219;78;21026;-70
2022/08/17 07:32:59;;;;;;;9.03;4.37;;;;;;;21.34;72.74;95207.25;1784508;78;21007;-70
2022/08/17 07:35:39;;;;;;;7.40;5.12;;;;;;;21.48;72.02;95211.70;1826323;78;21002;-70
2022/08/17 07:38:13;;;;;;;8.48;5.12;;;;;;;21.68;70.03;95202.78;1824652;78;21018;-70
2022/08/17 07:41:03;;;;;;;7.80;5.20;;;;;;;21.88;69.01;95202.75;1820913;79;21572;-70
2022/08/17 07:43:46;;;;;;;5.62;4.60;;;;;;;22.00;68.56;95205.44;1821051;79;21109;-70
2022/08/17 07:49:34;;;;;;;7.60;5.53;;;;;;;22.16;68.65;95199.83;1797908;79;21014;-70
2022/08/17 07:52:08;;;;;;;10.40;5.50;;;;;;;22.16;68.61;95200.33;1821352;79;20991;-70
2022/08/17 07:54:41;;;;;;;8.18;4.75;;;;;;;22.15;68.08;95204.84;1793663;79;21540;-70
2022/08/17 07:57:13;;;;;;;5.67;5.17;;;;;;;22.14;67.72;95204.45;1821528;79;20982;-70
2022/08/17 08:00:02;;;;;;;7.17;5.10;;;;;;;22.10;67.68;95211.03;1821400;79;21045;-70
2022/08/17 08:02:39;;;;;;;5.92;5.33;;;;;;;22.06;67.58;95212.20;1819424;79;21057;-70
2022/08/17 08:05:24;;;;;;;7.22;5.03;;;;;;;22.09;68.06;95210.63;1821301;79;20967;-70
2022/08/17 08:08:04;;;;;;;5.80;4.90;;;;;;;22.14;68.06;95204.94;1821238;79;20979;-70
2022/08/17 08:10:40;;;;;;;7.20;5.17;;;;;;;22.22;68.28;95204.79;1821335;79;20959;-70
2022/08/17 08:13:15;;;;;;;7.80;5.42;;;;;;;22.32;68.30;95213.06;1794423;79;21441;-70
2022/08/17 08:15:48;;;;;;;8.38;5.75;;;;;;;22.46;68.61;95217.48;1821121;79;21006;-70
2022/08/17 08:18:38;;;;;;;8.08;5.62;;;;;;;22.54;68.70;95212.40;1821297;79;20927;-70
2022/08/17 08:21:14;;;;;;;6.28;5.15;;;;;;;22.62;68.31;95218.08;1821041;79;21015;-70
2022/08/17 08:24:01;;;;;;;6.37;5.65;;;;;;;22.73;67.74;95218.67;1821193;79;21425;-70
2022/08/17 08:26:33;;;;;;;6.83;5.92;;;;;;;22.76;66.09;95217.09;1821263;79;21587;-70
2022/08/17 08:29:42;;;;;;;14.65;5.78;;;;;;;22.89;67.57;95213.87;1821702;79;21030;-70
2022/08/17 08:32:15;;;;;;;7.72;5.58;;;;;;;23.02;66.78;95215.20;1821408;79;21021;-70
2022/08/17 08:34:50;;;;;;;9.40;6.08;;;;;;;23.17;67.34;95212.36;1821495;79;21531;-70
2022/08/17 08:37:29;;;;;;;10.88;5.75;;;;;;;23.25;66.19;95209.45;1821006;79;21069;-70
2022/08/17 08:40:06;;;;;;;10.82;6.80;;;;;;;23.33;66.91;95207.06;1825849;78;20995;-70
2022/08/17 08:42:47;;;;;;;8.13;5.87;;;;;;;23.49;66.83;95209.94;1826113;78;21010;-70
2022/08/17 08:45:27;;;;;;;7.53;6.65;;;;;;;23.55;66.55;95208.97;1826072;78;21026;-70
2022/08/17 08:47:59;;;;;;;8.33;6.80;;;;;;;23.63;65.70;95207.03;1766217;78;21053;-70
2022/08/17 08:50:41;;;;;;;11.45;6.55;;;;;;;23.67;65.68;95200.95;1825440;78;20974;-70
2022/08/17 08:53:52;;;;;;;20.32;6.83;;;;;;;23.74;65.42;95200.88;1825585;78;20991;-70
2022/08/17 08:56:56;;;;;;;12.45;6.37;;;;;;;23.80;65.06;95206.27;1826121;78;20985;-70
2022/08/17 08:59:47;;;;;;;17.07;6.83;;;;;;;23.84;64.92;95196.95;1826053;78;20986;-70
2022/08/17 09:02:40;;;;;;;18.70;7.10;;;;;;;24.00;64.63;95210.12;1826148;78;21492;-70
2022/08/17 09:05:22;;;;;;;19.27;6.67;;;;;;;24.11;64.11;95210.12;1826163;78;21058;-70
2022/08/17 09:08:21;;;;;;;23.50;6.75;;;;;;;24.20;64.17;95206.72;1826331;78;20978;-68
2022/08/17 09:11:21;;;;;;;14.10;6.85;;;;;;;24.29;64.06;95210.52;1825762;78;21504;-68
2022/08/17 09:14:05;;;;;;;20.05;6.40;;;;;;;24.36;63.34;95208.55;1755100;81;21073;-68
2022/08/17 09:16:39;;;;;;;13.35;6.17;;;;;;;24.41;63.52;95213.59;1811737;78;21053;-68
2022/08/17 09:19:20;;;;;;;11.97;6.17;;;;;;;24.47;63.65;95216.31;1826180;78;21046;-68
2022/08/17 09:22:16;;;;;;;14.73;6.08;;;;;;;24.51;63.42;95215.10;1825911;78;21038;-68
2022/08/17 09:24:53;;;;;;;11.10;5.87;;;;;;;24.54;62.51;95219.75;1825887;78;21037;-68
2022/08/17 09:27:49;;;;;;;14.85;6.58;;;;;;;24.59;60.98;95219.38;1825799;78;21003;-68
2022/08/17 09:30:18;;;;;;;8.48;5.92;;;;;;;24.66;61.52;95213.02;1826215;78;21044;-68
2022/08/17 09:32:50;;;;;;;8.53;6.20;;;;;;;24.80;60.70;95212.77;1826005;78;20990;-68
2022/08/17 09:35:21;;;;;;;;;;;;;;;24.89;61.05;95210.65;1829100;78;21022;-69
2022/08/17 09:38:16;;;;;;;10.43;5.90;;;;;;;25.01;61.26;95214.20;1826118;78;20113;-68
2022/08/17 09:40:51;;;;;;;10.72;5.95;;;;;;;25.15;59.65;95210.34;1825842;78;20971;-68
2022/08/17 09:43:47;;;;;;;11.88;5.62;;;;;;;25.18;59.47;95213.70;1826189;78;20958;-68
2022/08/17 09:46:22;;;;;;;14.03;5.85;;;;;;;25.11;57.01;95212.95;1826116;78;21014;-68
2022/08/17 09:48:57;;;;;;;9.28;5.50;;;;;;;25.13;58.15;95213.69;1826129;78;20963;-68
2022/08/17 09:51:38;;;;;;;10.95;5.47;;;;;;;25.19;57.33;95202.41;1826124;78;21026;-68
2022/08/17 09:54:14;;;;;;;8.48;5.72;;;;;;;25.23;58.68;95212.83;1826196;78;21101;-68
2022/08/17 09:57:10;;;;;;;11.63;5.78;;;;;;;25.23;58.56;95221.43;1825529;78;21512;-68
2022/08/17 10:00:17;;;;;;;13.95;6.05;;;;;;;25.34;58.48;95221.38;1800628;78;21026;-69
2022/08/17 10:03:09;;;;;;;9.38;5.60;;;;;;;25.57;56.48;95219.45;1825754;79;21098;-68
2022/08/17 10:06:07;;;;;;;11.20;5.47;;;;;;;25.93;56.71;95215.14;1826475;78;21038;-69
2022/08/17 10:08:51;;;;;;;7.25;5.25;;;;;;;26.18;55.20;95209.83;1825869;78;20975;-69
2022/08/17 10:14:57;;;;;;;13.55;5.40;;;;;;;26.61;51.87;95198.86;1825986;78;21062;-68
2022/08/17 10:18:07;;;;;;;10.30;5.42;;;;;;;26.93;52.29;95204.58;1825964;78;21496;-68
2022/08/17 10:27:03;;;;;;;22.65;5.50;;;;;;;27.70;49.26;95200.33;1825956;78;21486;-68
2022/08/17 10:29:38;;;;;;;15.93;5.62;;;;;;;27.87;48.87;95194.22;1794388;78;20997;-69
2022/08/17 10:32:10;;;;;;;12.73;4.80;;;;;;;27.97;49.56;95192.35;1824563;78;21562;-68
2022/08/17 10:34:54;;;;;;;10.05;4.55;;;;;;;27.96;45.97;95198.75;1826318;78;21062;-69
2022/08/17 10:37:38;;;;;;;11.08;5.33;;;;;;;27.91;45.48;95199.69;1825659;78;20998;-69
2022/08/17 10:40:34;;;;;;;9.90;4.35;;;;;;;27.78;46.26;95208.09;1825651;78;21034;-69
2022/08/17 10:43:34;;;;;;;8.48;4.47;;;;;;;27.89;48.23;95202.19;1825974;78;21041;-69
2022/08/17 10:46:40;;;;;;;11.03;4.78;;;;;;;28.17;47.92;95206.73;1826110;78;20963;-68
2022/08/17 10:49:24;;;;;;;8.25;4.50;;;;;;;28.33;44.81;95195.27;1825924;78;21018;-68
2022/08/17 10:51:57;;;;;;;11.43;4.25;;;;;;;28.42;44.00;95193.52;1826261;78;21002;-68
2022/08/17 10:54:38;;;;;;;11.28;4.42;;;;;;;28.42;42.75;95197.59;1826196;78;20962;-68
2022/08/17 10:57:33;;;;;;;11.08;4.25;;;;;;;28.41;41.50;95197.25;1825512;78;21078;-68
2022/08/17 11:00:14;;;;;;;9.58;4.50;;;;;;;28.30;43.86;95201.47;1826085;78;21535;-68
2022/08/17 11:02:52;;;;;;;7.85;4.45;;;;;;;28.49;43.88;95196.03;1766482;78;21456;-68
2022/08/17 11:05:42;;;;;;;8.38;4.40;;;;;;;28.46;42.59;95204.48;1825845;78;21022;-69
2022/08/17 11:08:40;;;;;;;9.63;4.30;;;;;;;28.35;41.87;95210.03;1825139;78;20979;-68
2022/08/17 11:11:22;;;;;;;8.38;4.83;;;;;;;28.45;41.76;95206.82;1823573;78;20955;-68
2022/08/17 11:14:20;;;;;;;10.55;4.15;;;;;;;28.66;43.24;95210.70;1826318;78;21022;-69
2022/08/17 11:17:18;;;;;;;11.70;4.87;;;;;;;28.91;42.44;95213.24;1714877;83;21103;-68
2022/08/17 11:20:11;;;;;;;7.05;4.37;;;;;;;29.14;41.80;95203.36;1714767;84;21003;-68
2022/08/17 11:23:13;;;;;;;9.78;4.55;;;;;;;29.24;40.87;95203.65;1806413;78;21049;-69
2022/08/17 11:25:53;;;;;;;10.28;4.78;;;;;;;29.47;41.52;95199.98;1826010;78;20994;-68
2022/08/17 11:28:33;;;;;;;6.15;4.10;;;;;;;29.63;40.22;95203.37;1826048;78;21003;-69
2022/08/17 11:31:35;;;;;;;10.55;4.67;;;;;;;29.79;40.39;95191.84;1826328;78;21479;-68
2022/08/17 11:34:17;;;;;;;6.12;4.28;;;;;;;29.93;39.66;95194.50;1826240;78;21034;-68
2022/08/17 11:37:07;;;;;;;13.58;4.80;;;;;;;30.10;41.05;95192.27;1826360;78;20985;-68
2022/08/17 11:40:05;;;;;;;7.97;4.40;;;;;;;29.64;38.46;95197.45;1824974;78;21018;-68
2022/08/17 11:43:03;;;;;;;8.73;4.35;;;;;;;29.25;40.12;95194.98;1826192;78;21029;-68
2022/08/17 11:46:01;;;;;;;7.35;4.33;;;;;;;28.79;39.62;95195.42;1826179;78;20999;-68
2022/08/17 11:52:05;;;;;;;9.78;4.62;;;;;;;28.70;41.60;95195.80;1799408;78;20990;-68
2022/08/17 11:54:43;;;;;;;6.22;4.72;;;;;;;29.88;40.90;95186.81;1826160;78;21529;-68
2022/08/17 11:57:30;;;;;;;8.05;4.65;;;;;;;30.37;36.62;95183.15;1826139;78;21058;-69
2022/08/17 12:00:07;;;;;;;8.08;4.37;;;;;;;30.13;37.80;95181.06;1824633;78;21232;-69
2022/08/17 12:02:37;;;;;;;8.38;5.03;;;;;;;30.27;38.66;95183.77;1825895;78;21073;-68
2022/08/17 12:05:24;;;;;;;9.65;4.65;;;;;;;30.18;37.39;95187.39;1795079;78;21066;-68
2022/08/17 12:07:57;;;;;;;8.33;4.62;;;;;;;30.34;38.63;95184.84;1825874;78;21516;-68
2022/08/17 12:10:31;;;;;;;9.08;4.65;;;;;;;30.94;39.29;95188.06;1826019;78;20974;-69
2022/08/17 12:13:02;;;;;;;13.95;4.58;;;;;;;31.54;35.68;95182.17;1826155;78;21097;-69
2022/08/17 12:15:37;;;;;;;9.88;4.33;;;;;;;32.05;35.46;95178.83;1825566;78;21014;-68
2022/08/17 12:18:04;;;;;;;8.30;4.37;;;;;;;32.43;35.01;95181.38;1794452;78;21022;-69
2022/08/17 12:20:42;;;;;;;8.40;4.22;;;;;;;32.88;34.91;95179.06;1826263;78;20955;-69
2022/08/17 12:23:41;;;;;;;13.90;5.95;;;;;;;32.81;33.94;95174.84;1826124;78;21476;-69
2022/08/17 12:26:18;;;;;;;8.23;4.90;;;;;;;32.48;34.81;95172.19;1826335;78;20966;-68
2022/08/17 12:28:56;;;;;;;10.90;4.78;;;;;;;32.71;34.97;95167.33;1826005;78;21011;-69
2022/08/17 12:31:36;;;;;;;16.05;5.65;;;;;;;33.07;34.68;95170.48;1826299;78;20959;-69
2022/08/17 12:34:04;;;;;;;7.75;4.80;;;;;;;33.40;35.42;95174.43;1826212;78;21030;-69
2022/08/17 12:36:33;;;;;;;7.17;4.37;;;;;;;33.52;33.02;95167.52;1826004;78;21010;-69
2022/08/17 12:39:05;;;;;;;5.10;4.60;;;;;;;32.89;32.91;95181.63;1826104;78;21006;-69
2022/08/17 12:41:40;;;;;;;8.53;5.42;;;;;;;33.05;33.92;95178.01;1825656;78;21042;-69
2022/08/17 12:44:22;;;;;;;8.08;5.40;;;;;;;33.31;33.61;95180.96;1825707;78;21041;-69
2022/08/17 12:46:54;;;;;;;5.67;4.35;;;;;;;33.61;32.04;95183.39;1825253;78;21019;-69